sensor_id;sensor_type;location;lat;lon;timestamp;pressure;altitude;pressure_sealevel;temperature;humidity
7264;BME280;3673;52.480;13.348;2024-01-07T00:00:43;101406.41;;;4.83;46.03
7264;BME280;3673;52.480;13.348;2024-01-07T00:03:09;101403.91;;;4.86;45.94
7264;BME280;3673;52.480;13.348;2024-01-07T00:05:37;101406.19;;;5.04;46.03
7264;BME280;3673;52.480;13.348;2024-01-07T00:08:05;101410.00;;;4.88;46.56
7264;BME280;3673;52.480;13.348;2024-01-07T00:10:32;101402.94;;;4.83;46.71
7264;BME280;3673;52.480;13.348;2024-01-07T00:12:59;101396.25;;;4.64;47.07
7264;BME280;3673;52.480;13.348;2024-01-07T00:15:26;101413.00;;;4.74;46.72
7264;BME280;3673;52.480;13.348;2024-01-07T00:17:53;101409.72;;;4.79;46.67
7264;BME280;3673;52.480;13.348;2024-01-07T00:20:20;101410.38;;;4.99;46.27
7264;BME280;3673;52.480;13.348;2024-01-07T00:22:48;101409.38;;;4.95;46.30
7264;BME280;3673;52.480;13.348;2024-01-07T00:25:15;101413.22;;;4.81;46.41
7264;BME280;3673;52.480;13.348;2024-01-07T00:27:44;101418.59;;;4.86;46.41
7264;BME280;3673;52.480;13.348;2024-01-07T00:30:11;101430.59;;;4.84;46.18
7264;BME280;3673;52.480;13.348;2024-01-07T00:32:38;101431.75;;;4.66;46.46
7264;BME280;3673;52.480;13.348;2024-01-07T00:35:06;101434.91;;;4.58;46.83
7264;BME280;3673;52.480;13.348;2024-01-07T00:37:32;101439.69;;;4.71;46.60
7264;BME280;3673;52.480;13.348;2024-01-07T00:40:02;101440.66;;;4.49;46.81
7264;BME280;3673;52.480;13.348;2024-01-07T00:42:28;101439.31;;;4.60;46.34
7264;BME280;3673;52.480;13.348;2024-01-07T00:44:55;101442.66;;;4.56;46.27
7264;BME280;3673;52.480;13.348;2024-01-07T00:47:22;101445.13;;;4.53;46.44
7264;BME280;3673;52.480;13.348;2024-01-07T00:49:49;101451.25;;;4.32;46.55
7264;BME280;3673;52.480;13.348;2024-01-07T00:52:16;101462.06;;;4.20;46.73
7264;BME280;3673;52.480;13.348;2024-01-07T00:54:42;101461.59;;;4.30;46.23
7264;BME280;3673;52.480;13.348;2024-01-07T00:57:11;101456.16;;;4.48;45.90
7264;BME280;3673;52.480;13.348;2024-01-07T00:59:38;101469.53;;;4.60;45.03
7264;BME280;3673;52.480;13.348;2024-01-07T01:02:05;101471.25;;;4.36;45.48
7264;BME280;3673;52.480;13.348;2024-01-07T01:04:32;101473.84;;;4.59;45.39
7264;BME280;3673;52.480;13.348;2024-01-07T01:06:59;101482.13;;;4.49;45.05
7264;BME280;3673;52.480;13.348;2024-01-07T01:09:28;101477.75;;;4.25;45.28
7264;BME280;3673;52.480;13.348;2024-01-07T01:11:54;101485.50;;;4.47;45.53
7264;BME280;3673;52.480;13.348;2024-01-07T01:14:22;101483.66;;;4.21;45.21
7264;BME280;3673;52.480;13.348;2024-01-07T01:16:49;101494.50;;;4.34;45.30
7264;BME280;3673;52.480;13.348;2024-01-07T01:19:17;101485.09;;;4.12;45.25
7264;BME280;3673;52.480;13.348;2024-01-07T01:21:44;101491.00;;;4.56;44.59
7264;BME280;3673;52.480;13.348;2024-01-07T01:24:10;101497.59;;;4.48;44.47
7264;BME280;3673;52.480;13.348;2024-01-07T01:26:38;101490.53;;;4.93;47.66
7264;BME280;3673;52.480;13.348;2024-01-07T01:29:05;101497.66;;;5.25;45.33
7264;BME280;3673;52.480;13.348;2024-01-07T01:31:33;101499.91;;;4.64;43.50
7264;BME280;3673;52.480;13.348;2024-01-07T01:34:00;101503.66;;;4.48;44.03
7264;BME280;3673;52.480;13.348;2024-01-07T01:36:27;101509.72;;;4.25;44.30
7264;BME280;3673;52.480;13.348;2024-01-07T01:38:54;101514.41;;;4.35;44.01
7264;BME280;3673;52.480;13.348;2024-01-07T01:41:21;101521.19;;;4.32;44.25
7264;BME280;3673;52.480;13.348;2024-01-07T01:43:48;101508.03;;;4.26;44.11
7264;BME280;3673;52.480;13.348;2024-01-07T01:46:14;101514.94;;;4.03;44.55
7264;BME280;3673;52.480;13.348;2024-01-07T01:48:43;101526.34;;;4.08;44.21
7264;BME280;3673;52.480;13.348;2024-01-07T01:51:10;101524.56;;;4.07;44.15
7264;BME280;3673;52.480;13.348;2024-01-07T01:53:38;101530.41;;;4.01;43.91
7264;BME280;3673;52.480;13.348;2024-01-07T01:56:05;101520.41;;;4.34;44.06
7264;BME280;3673;52.480;13.348;2024-01-07T01:58:32;101519.34;;;4.05;43.70
7264;BME280;3673;52.480;13.348;2024-01-07T02:00:59;101530.50;;;4.27;44.16
7264;BME280;3673;52.480;13.348;2024-01-07T02:03:26;101530.88;;;3.91;44.63
7264;BME280;3673;52.480;13.348;2024-01-07T02:05:55;101521.34;;;3.68;44.65
7264;BME280;3673;52.480;13.348;2024-01-07T02:08:23;101530.09;;;4.16;43.87
7264;BME280;3673;52.480;13.348;2024-01-07T02:10:49;101539.88;;;4.23;43.42
7264;BME280;3673;52.480;13.348;2024-01-07T02:13:16;101540.28;;;4.11;43.39
7264;BME280;3673;52.480;13.348;2024-01-07T02:15:43;101549.22;;;4.20;43.59
7264;BME280;3673;52.480;13.348;2024-01-07T02:18:10;101526.47;;;3.89;43.72
7264;BME280;3673;52.480;13.348;2024-01-07T02:20:37;101532.59;;;4.13;43.72
7264;BME280;3673;52.480;13.348;2024-01-07T02:23:05;101542.88;;;3.89;44.19
7264;BME280;3673;52.480;13.348;2024-01-07T02:25:36;101550.69;;;3.91;43.66
7264;BME280;3673;52.480;13.348;2024-01-07T02:28:04;101556.22;;;3.78;43.60
7264;BME280;3673;52.480;13.348;2024-01-07T02:30:30;101544.03;;;3.75;43.91
7264;BME280;3673;52.480;13.348;2024-01-07T02:33:01;101553.19;;;3.67;43.87
7264;BME280;3673;52.480;13.348;2024-01-07T02:35:29;101553.84;;;3.41;43.95
7264;BME280;3673;52.480;13.348;2024-01-07T02:37:55;101551.38;;;3.64;44.08
7264;BME280;3673;52.480;13.348;2024-01-07T02:40:22;101549.22;;;3.75;44.08
7264;BME280;3673;52.480;13.348;2024-01-07T02:42:51;101558.75;;;3.76;44.02
7264;BME280;3673;52.480;13.348;2024-01-07T02:45:18;101567.31;;;3.53;44.37
7264;BME280;3673;52.480;13.348;2024-01-07T02:47:45;101571.16;;;3.42;44.42
7264;BME280;3673;52.480;13.348;2024-01-07T02:50:12;101565.19;;;3.65;44.16
7264;BME280;3673;52.480;13.348;2024-01-07T02:52:39;101564.41;;;3.45;44.33
7264;BME280;3673;52.480;13.348;2024-01-07T02:55:07;101567.22;;;3.72;44.48
7264;BME280;3673;52.480;13.348;2024-01-07T02:57:34;101575.88;;;3.52;43.92
7264;BME280;3673;52.480;13.348;2024-01-07T03:00:04;101577.09;;;3.60;43.57
7264;BME280;3673;52.480;13.348;2024-01-07T03:02:31;101578.66;;;3.36;44.52
7264;BME280;3673;52.480;13.348;2024-01-07T03:04:58;101576.72;;;3.30;45.22
7264;BME280;3673;52.480;13.348;2024-01-07T03:07:25;101589.25;;;3.83;43.67
7264;BME280;3673;52.480;13.348;2024-01-07T03:09:52;101584.19;;;3.45;44.09
7264;BME280;3673;52.480;13.348;2024-01-07T03:12:18;101577.66;;;3.32;45.07
7264;BME280;3673;52.480;13.348;2024-01-07T03:14:45;101579.84;;;3.44;44.56
7264;BME280;3673;52.480;13.348;2024-01-07T03:17:13;101598.84;;;3.44;44.39
7264;BME280;3673;52.480;13.348;2024-01-07T03:19:40;101592.06;;;3.27;44.37
7264;BME280;3673;52.480;13.348;2024-01-07T03:22:07;101588.50;;;3.44;44.06
7264;BME280;3673;52.480;13.348;2024-01-07T03:24:34;101586.19;;;3.10;44.69
7264;BME280;3673;52.480;13.348;2024-01-07T03:27:01;101587.44;;;3.60;43.71
7264;BME280;3673;52.480;13.348;2024-01-07T03:29:27;101591.38;;;3.73;43.43
7264;BME280;3673;52.480;13.348;2024-01-07T03:31:54;101593.66;;;3.24;44.13
7264;BME280;3673;52.480;13.348;2024-01-07T03:34:22;101600.84;;;3.10;44.42
7264;BME280;3673;52.480;13.348;2024-01-07T03:36:49;101598.72;;;3.41;44.23
7264;BME280;3673;52.480;13.348;2024-01-07T03:39:16;101594.22;;;3.37;43.80
7264;BME280;3673;52.480;13.348;2024-01-07T03:41:42;101615.34;;;3.27;44.06
7264;BME280;3673;52.480;13.348;2024-01-07T03:44:09;101610.47;;;3.33;44.06
7264;BME280;3673;52.480;13.348;2024-01-07T03:46:36;101606.03;;;3.51;44.22
7264;BME280;3673;52.480;13.348;2024-01-07T03:49:03;101624.56;;;3.41;43.79
7264;BME280;3673;52.480;13.348;2024-01-07T03:51:31;101615.31;;;3.46;43.33
7264;BME280;3673;52.480;13.348;2024-01-07T03:53:57;101622.75;;;3.39;44.02
7264;BME280;3673;52.480;13.348;2024-01-07T03:56:24;101637.03;;;3.50;44.29
7264;BME280;3673;52.480;13.348;2024-01-07T03:58:51;101635.56;;;3.36;44.10
7264;BME280;3673;52.480;13.348;2024-01-07T04:01:18;101636.75;;;3.04;44.48
7264;BME280;3673;52.480;13.348;2024-01-07T04:03:44;101647.38;;;3.10;44.40
7264;BME280;3673;52.480;13.348;2024-01-07T04:06:11;101649.25;;;3.14;43.73
7264;BME280;3673;52.480;13.348;2024-01-07T04:08:39;101658.63;;;3.31;43.75
7264;BME280;3673;52.480;13.348;2024-01-07T04:11:06;101657.50;;;3.05;44.44
7264;BME280;3673;52.480;13.348;2024-01-07T04:13:33;101654.53;;;2.96;44.29
7264;BME280;3673;52.480;13.348;2024-01-07T04:15:59;101650.69;;;3.27;43.75
7264;BME280;3673;52.480;13.348;2024-01-07T04:18:26;101666.50;;;3.34;43.51
7264;BME280;3673;52.480;13.348;2024-01-07T04:20:53;101661.50;;;3.18;44.00
7264;BME280;3673;52.480;13.348;2024-01-07T04:23:20;101667.50;;;2.98;43.49
7264;BME280;3673;52.480;13.348;2024-01-07T04:25:48;101669.38;;;3.21;43.98
7264;BME280;3673;52.480;13.348;2024-01-07T04:28:15;101673.22;;;3.10;43.66
7264;BME280;3673;52.480;13.348;2024-01-07T04:30:41;101669.19;;;3.17;43.60
7264;BME280;3673;52.480;13.348;2024-01-07T04:33:08;101674.59;;;3.42;43.54
7264;BME280;3673;52.480;13.348;2024-01-07T04:35:35;101675.28;;;3.38;43.46
7264;BME280;3673;52.480;13.348;2024-01-07T04:38:02;101685.03;;;3.43;42.58
7264;BME280;3673;52.480;13.348;2024-01-07T04:40:29;101674.81;;;3.27;42.98
7264;BME280;3673;52.480;13.348;2024-01-07T04:42:57;101675.69;;;3.28;43.48
7264;BME280;3673;52.480;13.348;2024-01-07T04:45:23;101672.88;;;3.02;43.06
7264;BME280;3673;52.480;13.348;2024-01-07T04:47:50;101675.19;;;3.16;43.32
7264;BME280;3673;52.480;13.348;2024-01-07T04:50:17;101679.00;;;3.44;43.26
7264;BME280;3673;52.480;13.348;2024-01-07T04:52:45;101678.34;;;3.48;43.36
7264;BME280;3673;52.480;13.348;2024-01-07T04:55:12;101677.47;;;3.29;43.21
7264;BME280;3673;52.480;13.348;2024-01-07T04:57:39;101679.69;;;3.20;43.30
7264;BME280;3673;52.480;13.348;2024-01-07T05:00:08;101679.13;;;3.07;43.44
7264;BME280;3673;52.480;13.348;2024-01-07T05:02:35;101679.91;;;3.45;43.10
7264;BME280;3673;52.480;13.348;2024-01-07T05:05:03;101686.91;;;3.47;42.53
7264;BME280;3673;52.480;13.348;2024-01-07T05:07:30;101688.50;;;3.25;43.42
7264;BME280;3673;52.480;13.348;2024-01-07T05:09:57;101691.44;;;3.32;43.01
7264;BME280;3673;52.480;13.348;2024-01-07T05:12:24;101694.69;;;3.28;43.21
7264;BME280;3673;52.480;13.348;2024-01-07T05:14:51;101691.94;;;3.44;43.25
7264;BME280;3673;52.480;13.348;2024-01-07T05:17:19;101699.03;;;3.48;42.79
7264;BME280;3673;52.480;13.348;2024-01-07T05:19:46;101697.00;;;3.41;43.35
7264;BME280;3673;52.480;13.348;2024-01-07T05:22:12;101700.38;;;3.40;43.00
7264;BME280;3673;52.480;13.348;2024-01-07T05:24:39;101696.94;;;3.40;42.83
7264;BME280;3673;52.480;13.348;2024-01-07T05:27:06;101702.41;;;3.47;42.70
7264;BME280;3673;52.480;13.348;2024-01-07T05:29:33;101709.31;;;3.28;43.51
7264;BME280;3673;52.480;13.348;2024-01-07T05:32:00;101708.28;;;3.24;43.12
7264;BME280;3673;52.480;13.348;2024-01-07T05:34:28;101717.13;;;3.48;43.12
7264;BME280;3673;52.480;13.348;2024-01-07T05:36:55;101722.13;;;3.25;43.26
7264;BME280;3673;52.480;13.348;2024-01-07T05:39:22;101727.03;;;3.19;43.27
7264;BME280;3673;52.480;13.348;2024-01-07T05:41:49;101726.81;;;3.33;43.66
7264;BME280;3673;52.480;13.348;2024-01-07T05:44:15;101738.72;;;3.30;44.01
7264;BME280;3673;52.480;13.348;2024-01-07T05:46:42;101738.97;;;3.55;43.20
7264;BME280;3673;52.480;13.348;2024-01-07T05:49:09;101738.31;;;3.40;43.40
7264;BME280;3673;52.480;13.348;2024-01-07T05:51:39;101753.34;;;3.29;43.71
7264;BME280;3673;52.480;13.348;2024-01-07T05:54:06;101735.59;;;3.18;43.54
7264;BME280;3673;52.480;13.348;2024-01-07T05:56:38;101734.81;;;3.01;44.08
7264;BME280;3673;52.480;13.348;2024-01-07T05:59:05;101747.00;;;3.42;43.72
7264;BME280;3673;52.480;13.348;2024-01-07T06:01:32;101747.28;;;3.29;44.04
7264;BME280;3673;52.480;13.348;2024-01-07T06:03:59;101752.56;;;3.30;44.39
7264;BME280;3673;52.480;13.348;2024-01-07T06:06:25;101749.13;;;3.31;44.42
7264;BME280;3673;52.480;13.348;2024-01-07T06:08:53;101749.69;;;3.43;43.81
7264;BME280;3673;52.480;13.348;2024-01-07T06:11:20;101757.97;;;3.55;44.05
7264;BME280;3673;52.480;13.348;2024-01-07T06:13:47;101761.50;;;3.38;43.94
7264;BME280;3673;52.480;13.348;2024-01-07T06:16:13;101759.03;;;3.60;43.78
7264;BME280;3673;52.480;13.348;2024-01-07T06:18:40;101747.97;;;3.63;43.07
7264;BME280;3673;52.480;13.348;2024-01-07T06:21:07;101756.66;;;3.65;43.45
7264;BME280;3673;52.480;13.348;2024-01-07T06:23:34;101763.00;;;3.52;43.12
7264;BME280;3673;52.480;13.348;2024-01-07T06:26:04;101765.69;;;3.75;43.37
7264;BME280;3673;52.480;13.348;2024-01-07T06:28:31;101766.50;;;3.74;42.82
7264;BME280;3673;52.480;13.348;2024-01-07T06:30:58;101776.13;;;3.57;43.26
7264;BME280;3673;52.480;13.348;2024-01-07T06:33:25;101779.72;;;3.80;43.11
7264;BME280;3673;52.480;13.348;2024-01-07T06:35:52;101785.72;;;3.79;43.00
7264;BME280;3673;52.480;13.348;2024-01-07T06:38:18;101777.28;;;3.83;42.89
7264;BME280;3673;52.480;13.348;2024-01-07T06:40:45;101780.22;;;3.71;43.07
7264;BME280;3673;52.480;13.348;2024-01-07T06:43:13;101792.97;;;3.67;43.51
7264;BME280;3673;52.480;13.348;2024-01-07T06:45:40;101794.72;;;3.48;43.60
7264;BME280;3673;52.480;13.348;2024-01-07T06:48:07;101796.44;;;3.48;43.50
7264;BME280;3673;52.480;13.348;2024-01-07T06:50:34;101796.50;;;3.49;43.43
7264;BME280;3673;52.480;13.348;2024-01-07T06:53:01;101788.75;;;3.49;43.40
7264;BME280;3673;52.480;13.348;2024-01-07T06:55:28;101796.06;;;3.21;43.88
7264;BME280;3673;52.480;13.348;2024-01-07T06:57:54;101791.94;;;3.63;44.06
7264;BME280;3673;52.480;13.348;2024-01-07T07:00:22;101798.28;;;3.70;43.46
7264;BME280;3673;52.480;13.348;2024-01-07T07:02:50;101803.09;;;3.62;43.36
7264;BME280;3673;52.480;13.348;2024-01-07T07:05:16;101806.50;;;3.42;43.63
7264;BME280;3673;52.480;13.348;2024-01-07T07:07:43;101814.13;;;3.58;43.56
7264;BME280;3673;52.480;13.348;2024-01-07T07:10:11;101809.00;;;3.21;43.79
7264;BME280;3673;52.480;13.348;2024-01-07T07:12:37;101807.84;;;3.15;44.37
7264;BME280;3673;52.480;13.348;2024-01-07T07:15:05;101815.91;;;3.59;44.04
7264;BME280;3673;52.480;13.348;2024-01-07T07:17:34;101818.09;;;3.69;43.29
7264;BME280;3673;52.480;13.348;2024-01-07T07:20:00;101823.94;;;3.65;43.13
7264;BME280;3673;52.480;13.348;2024-01-07T07:22:27;101825.78;;;3.48;43.30
7264;BME280;3673;52.480;13.348;2024-01-07T07:24:54;101826.66;;;3.68;43.14
7264;BME280;3673;52.480;13.348;2024-01-07T07:27:21;101826.53;;;3.65;43.44
7264;BME280;3673;52.480;13.348;2024-01-07T07:29:48;101829.25;;;3.68;43.65
7264;BME280;3673;52.480;13.348;2024-01-07T07:32:15;101829.25;;;3.49;43.84
7264;BME280;3673;52.480;13.348;2024-01-07T07:34:43;101831.03;;;3.50;43.80
7264;BME280;3673;52.480;13.348;2024-01-07T07:37:10;101832.25;;;3.58;43.33
7264;BME280;3673;52.480;13.348;2024-01-07T07:39:36;101840.75;;;3.75;43.24
7264;BME280;3673;52.480;13.348;2024-01-07T07:42:03;101843.00;;;3.86;43.12
7264;BME280;3673;52.480;13.348;2024-01-07T07:44:30;101849.00;;;3.85;43.17
7264;BME280;3673;52.480;13.348;2024-01-07T07:46:57;101840.94;;;3.41;43.96
7264;BME280;3673;52.480;13.348;2024-01-07T07:49:24;101846.41;;;3.66;43.54
7264;BME280;3673;52.480;13.348;2024-01-07T07:51:52;101853.28;;;3.66;43.12
7264;BME280;3673;52.480;13.348;2024-01-07T07:54:18;101851.09;;;3.75;42.94
7264;BME280;3673;52.480;13.348;2024-01-07T07:56:45;101857.28;;;3.97;42.75
7264;BME280;3673;52.480;13.348;2024-01-07T07:59:13;101868.81;;;3.85;42.56
7264;BME280;3673;52.480;13.348;2024-01-07T08:01:40;101867.84;;;4.02;42.31
7264;BME280;3673;52.480;13.348;2024-01-07T08:04:06;101868.38;;;3.95;42.92
7264;BME280;3673;52.480;13.348;2024-01-07T08:06:35;101867.50;;;3.94;42.96
7264;BME280;3673;52.480;13.348;2024-01-07T08:09:03;101866.94;;;4.01;42.46
7264;BME280;3673;52.480;13.348;2024-01-07T08:11:30;101862.00;;;3.87;42.78
7264;BME280;3673;52.480;13.348;2024-01-07T08:13:56;101857.97;;;3.74;42.66
7264;BME280;3673;52.480;13.348;2024-01-07T08:16:24;101861.50;;;3.95;42.72
7264;BME280;3673;52.480;13.348;2024-01-07T08:18:50;101872.25;;;4.04;43.06
7264;BME280;3673;52.480;13.348;2024-01-07T08:21:17;101869.19;;;4.13;42.82
7264;BME280;3673;52.480;13.348;2024-01-07T08:23:44;101878.88;;;3.98;42.74
7264;BME280;3673;52.480;13.348;2024-01-07T08:26:12;101873.16;;;4.05;43.04
7264;BME280;3673;52.480;13.348;2024-01-07T08:28:39;101882.00;;;4.10;43.11
7264;BME280;3673;52.480;13.348;2024-01-07T08:31:06;101878.47;;;3.89;43.27
7264;BME280;3673;52.480;13.348;2024-01-07T08:33:33;101884.81;;;3.95;43.48
7264;BME280;3673;52.480;13.348;2024-01-07T08:36:00;101888.28;;;3.96;43.53
7264;BME280;3673;52.480;13.348;2024-01-07T08:38:27;101887.41;;;3.95;43.28
7264;BME280;3673;52.480;13.348;2024-01-07T08:40:53;101893.56;;;4.18;43.33
7264;BME280;3673;52.480;13.348;2024-01-07T08:43:22;101894.34;;;3.96;43.23
7264;BME280;3673;52.480;13.348;2024-01-07T08:45:49;101884.09;;;4.19;43.01
7264;BME280;3673;52.480;13.348;2024-01-07T08:48:17;101885.56;;;3.93;44.06
7264;BME280;3673;52.480;13.348;2024-01-07T08:50:44;101877.47;;;3.85;43.56
7264;BME280;3673;52.480;13.348;2024-01-07T08:53:11;101888.47;;;4.20;43.54
7264;BME280;3673;52.480;13.348;2024-01-07T08:55:40;101887.63;;;4.40;43.41
7264;BME280;3673;52.480;13.348;2024-01-07T08:58:06;101881.63;;;4.22;43.52
7264;BME280;3673;52.480;13.348;2024-01-07T09:00:34;101892.09;;;4.23;43.39
7264;BME280;3673;52.480;13.348;2024-01-07T09:03:02;101892.59;;;4.35;43.88
7264;BME280;3673;52.480;13.348;2024-01-07T09:05:29;101898.59;;;4.34;43.92
7264;BME280;3673;52.480;13.348;2024-01-07T09:07:55;101896.28;;;4.40;44.01
7264;BME280;3673;52.480;13.348;2024-01-07T09:10:22;101887.75;;;4.63;43.79
7264;BME280;3673;52.480;13.348;2024-01-07T09:12:53;101892.63;;;4.56;43.42
7264;BME280;3673;52.480;13.348;2024-01-07T09:15:21;101897.56;;;4.50;43.69
7264;BME280;3673;52.480;13.348;2024-01-07T09:17:49;101897.34;;;4.87;43.29
7264;BME280;3673;52.480;13.348;2024-01-07T09:20:16;101897.16;;;4.82;43.35
7264;BME280;3673;52.480;13.348;2024-01-07T09:22:42;101897.41;;;4.67;43.80
7264;BME280;3673;52.480;13.348;2024-01-07T09:25:10;101898.00;;;4.01;44.25
7264;BME280;3673;52.480;13.348;2024-01-07T09:27:37;101902.66;;;4.48;44.36
7264;BME280;3673;52.480;13.348;2024-01-07T09:30:05;101902.44;;;4.44;44.02
7264;BME280;3673;52.480;13.348;2024-01-07T09:32:32;101906.88;;;4.88;43.98
7264;BME280;3673;52.480;13.348;2024-01-07T09:35:00;101897.47;;;4.69;43.84
7264;BME280;3673;52.480;13.348;2024-01-07T09:37:28;101905.47;;;4.74;43.64
7264;BME280;3673;52.480;13.348;2024-01-07T09:39:55;101898.69;;;4.56;44.27
7264;BME280;3673;52.480;13.348;2024-01-07T09:42:21;101899.31;;;4.72;44.17
7264;BME280;3673;52.480;13.348;2024-01-07T09:44:50;101900.97;;;4.70;44.48
7264;BME280;3673;52.480;13.348;2024-01-07T09:47:17;101902.78;;;4.51;44.17
7264;BME280;3673;52.480;13.348;2024-01-07T09:49:46;101905.19;;;4.67;44.10
7264;BME280;3673;52.480;13.348;2024-01-07T09:52:14;101898.22;;;4.46;45.06
7264;BME280;3673;52.480;13.348;2024-01-07T09:54:46;101897.16;;;4.82;44.34
7264;BME280;3673;52.480;13.348;2024-01-07T09:57:14;101888.13;;;4.93;44.23
7264;BME280;3673;52.480;13.348;2024-01-07T09:59:41;101899.50;;;4.97;44.35
7264;BME280;3673;52.480;13.348;2024-01-07T10:02:08;101908.19;;;4.77;45.35
7264;BME280;3673;52.480;13.348;2024-01-07T10:04:36;101898.28;;;4.68;45.60
7264;BME280;3673;52.480;13.348;2024-01-07T10:07:03;101907.28;;;4.55;45.66
7264;BME280;3673;52.480;13.348;2024-01-07T10:09:33;101907.28;;;4.76;45.79
7264;BME280;3673;52.480;13.348;2024-01-07T10:12:00;101916.41;;;4.66;45.65
7264;BME280;3673;52.480;13.348;2024-01-07T10:14:28;101902.09;;;4.55;45.88
7264;BME280;3673;52.480;13.348;2024-01-07T10:16:55;101912.84;;;4.85;45.57
7264;BME280;3673;52.480;13.348;2024-01-07T10:19:24;101901.81;;;4.91;47.11
7264;BME280;3673;52.480;13.348;2024-01-07T10:22:01;101906.19;;;4.30;46.61
7264;BME280;3673;52.480;13.348;2024-01-07T10:24:36;101904.34;;;4.48;45.95
7264;BME280;3673;52.480;13.348;2024-01-07T10:27:06;101898.28;;;4.68;45.92
7264;BME280;3673;52.480;13.348;2024-01-07T10:29:33;101901.66;;;4.86;45.96
7264;BME280;3673;52.480;13.348;2024-01-07T10:32:01;101906.97;;;4.89;46.02
7264;BME280;3673;52.480;13.348;2024-01-07T10:34:29;101897.88;;;5.00;46.33
7264;BME280;3673;52.480;13.348;2024-01-07T10:36:59;101909.78;;;4.95;46.35
7264;BME280;3673;52.480;13.348;2024-01-07T10:39:26;101899.00;;;4.24;47.22
7264;BME280;3673;52.480;13.348;2024-01-07T10:41:54;101901.16;;;4.34;47.50
7264;BME280;3673;52.480;13.348;2024-01-07T10:44:25;101907.72;;;4.45;47.56
7264;BME280;3673;52.480;13.348;2024-01-07T10:46:54;101907.03;;;4.49;47.86
7264;BME280;3673;52.480;13.348;2024-01-07T10:49:24;101893.75;;;4.62;48.05
7264;BME280;3673;52.480;13.348;2024-01-07T10:52:02;101909.81;;;4.75;48.09
7264;BME280;3673;52.480;13.348;2024-01-07T10:54:31;101907.56;;;4.84;47.36
7264;BME280;3673;52.480;13.348;2024-01-07T10:57:07;101902.94;;;4.97;47.18
7264;BME280;3673;52.480;13.348;2024-01-07T10:59:39;101899.75;;;4.82;47.44
7264;BME280;3673;52.480;13.348;2024-01-07T11:02:07;101890.59;;;4.90;47.15
7264;BME280;3673;52.480;13.348;2024-01-07T11:04:45;101880.63;;;5.01;46.83
7264;BME280;3673;52.480;13.348;2024-01-07T11:07:22;101872.00;;;5.23;46.42
7264;BME280;3673;52.480;13.348;2024-01-07T11:10:06;101875.59;;;5.26;46.53
7264;BME280;3673;52.480;13.348;2024-01-07T11:12:36;101882.72;;;5.09;46.20
7264;BME280;3673;52.480;13.348;2024-01-07T11:15:04;101889.38;;;4.82;47.28
7264;BME280;3673;52.480;13.348;2024-01-07T11:17:41;101880.75;;;5.04;47.06
7264;BME280;3673;52.480;13.348;2024-01-07T11:20:20;101885.47;;;5.14;47.04
7264;BME280;3673;52.480;13.348;2024-01-07T11:22:48;101882.22;;;4.97;47.29
7264;BME280;3673;52.480;13.348;2024-01-07T11:25:35;101884.00;;;5.20;46.71
7264;BME280;3673;52.480;13.348;2024-01-07T11:28:05;101886.19;;;5.10;46.64
7264;BME280;3673;52.480;13.348;2024-01-07T11:30:38;101896.56;;;5.10;47.41
7264;BME280;3673;52.480;13.348;2024-01-07T11:33:05;101879.00;;;5.03;47.42
7264;BME280;3673;52.480;13.348;2024-01-07T11:35:55;101886.66;;;4.79;48.33
7264;BME280;3673;52.480;13.348;2024-01-07T11:38:22;101869.13;;;4.94;47.95
7264;BME280;3673;52.480;13.348;2024-01-07T11:40:49;101878.47;;;4.91;48.19
7264;BME280;3673;52.480;13.348;2024-01-07T11:43:18;101876.81;;;5.13;47.72
7264;BME280;3673;52.480;13.348;2024-01-07T11:45:45;101869.13;;;4.94;48.43
7264;BME280;3673;52.480;13.348;2024-01-07T11:48:12;101860.44;;;5.37;47.57
7264;BME280;3673;52.480;13.348;2024-01-07T11:50:39;101866.97;;;5.05;48.49
7264;BME280;3673;52.480;13.348;2024-01-07T11:53:06;101857.91;;;5.16;48.36
7264;BME280;3673;52.480;13.348;2024-01-07T11:55:33;101857.59;;;5.08;48.42
7264;BME280;3673;52.480;13.348;2024-01-07T11:58:02;101860.19;;;5.31;48.22
7264;BME280;3673;52.480;13.348;2024-01-07T12:00:32;101856.47;;;5.24;48.24
7264;BME280;3673;52.480;13.348;2024-01-07T12:02:59;101858.00;;;5.41;47.90
7264;BME280;3673;52.480;13.348;2024-01-07T12:05:27;101847.63;;;5.19;48.61
7264;BME280;3673;52.480;13.348;2024-01-07T12:07:54;101843.47;;;5.23;48.28
7264;BME280;3673;52.480;13.348;2024-01-07T12:10:21;101846.97;;;5.25;48.80
7264;BME280;3673;52.480;13.348;2024-01-07T12:12:48;101849.06;;;5.33;48.91
7264;BME280;3673;52.480;13.348;2024-01-07T12:15:16;101848.09;;;5.31;48.64
7264;BME280;3673;52.480;13.348;2024-01-07T12:17:55;101851.53;;;5.30;48.93
7264;BME280;3673;52.480;13.348;2024-01-07T12:20:24;101856.31;;;5.19;48.81
7264;BME280;3673;52.480;13.348;2024-01-07T12:22:51;101862.38;;;5.20;49.08
7264;BME280;3673;52.480;13.348;2024-01-07T12:25:22;101851.81;;;5.15;49.78
7264;BME280;3673;52.480;13.348;2024-01-07T12:27:49;101863.78;;;5.34;48.89
7264;BME280;3673;52.480;13.348;2024-01-07T12:30:19;101865.25;;;5.05;49.36
7264;BME280;3673;52.480;13.348;2024-01-07T12:32:51;101864.88;;;5.17;49.92
7264;BME280;3673;52.480;13.348;2024-01-07T12:35:18;101860.81;;;5.47;49.43
7264;BME280;3673;52.480;13.348;2024-01-07T12:37:45;101872.97;;;5.48;49.42
7264;BME280;3673;52.480;13.348;2024-01-07T12:40:12;101865.84;;;5.43;49.80
7264;BME280;3673;52.480;13.348;2024-01-07T12:42:42;101871.50;;;5.55;49.13
7264;BME280;3673;52.480;13.348;2024-01-07T12:45:12;101872.78;;;5.44;49.51
7264;BME280;3673;52.480;13.348;2024-01-07T12:47:40;101875.75;;;5.31;49.86
7264;BME280;3673;52.480;13.348;2024-01-07T12:50:09;101869.81;;;5.33;50.18
7264;BME280;3673;52.480;13.348;2024-01-07T12:52:37;101877.34;;;5.27;50.42
7264;BME280;3673;52.480;13.348;2024-01-07T12:55:05;101877.63;;;5.12;50.74
7264;BME280;3673;52.480;13.348;2024-01-07T12:57:33;101879.47;;;5.59;50.07
7264;BME280;3673;52.480;13.348;2024-01-07T12:59:59;101878.25;;;5.50;50.21
7264;BME280;3673;52.480;13.348;2024-01-07T13:02:26;101887.44;;;5.19;51.09
7264;BME280;3673;52.480;13.348;2024-01-07T13:04:53;101874.22;;;5.36;50.38
7264;BME280;3673;52.480;13.348;2024-01-07T13:07:22;101890.63;;;5.57;50.18
7264;BME280;3673;52.480;13.348;2024-01-07T13:09:48;101885.06;;;5.48;50.55
7264;BME280;3673;52.480;13.348;2024-01-07T13:12:15;101886.84;;;5.49;51.10